Airfield :
LOGIN :

Register | Disclaimer

   EN    FR    IT 

 










Legend :    VFR   Marginal VFR   IFR   Intensive IFR   Very Intensive IFR
Visi :
Ceiling :
>= 8 km
>= 3000ft
5 to 8 km
1000 to 3000 ft
1500m to 5 km
500 to 1000 ft
800 to 1500m
200 to 500 ft
< 800m
< 200 ft
Symbols :   Thunderstorms  Fog  Heavy snow  Heavy precipitations  Wind > 20 kt
SIGMETs :     Misc.  Thunderstorms  Icing  Turbulence  Mountain Waves  Volcanic Ashes






- Airport Elevation : 286 ft
- IATA code : FFD


EGVA - RAF Fairford

CURRENT METAR :
  • 190647Z AUTO 31004KT 9999 FEW018 SCT028 BKN037 13/13 A2992 RMK AO2 RAB24E36DZB36E47DZB47 SLP134 $

EXPIRED METARs :
  • 190639Z AUTO 33006KT 9999 -DZ SCT018 BKN037 13/13 A2992 RMK AO2 RAB24E36DZB36 SLP134 $
  • 190624Z AUTO 32006KT 6000 -RA OVC018 14/13 A2991 RMK AO2 RAB24 CIG 016 RWY27 SLP131 $
  • 190616Z AUTO 32006KT 9000 BR BKN016 OVC023 14/14 A2991 RMK AO2 BKN V OVC CIG 013 RWY27 SLP131 $
  • 190556Z AUTO 30008KT 9999 OVC013 14/14 A2991 RMK AO2 CIG 012 RWY27 SLP131 T01400138 10142 20120 52009 $
  • 190526Z AUTO 24005KT 9999 OVC010 14/14 A2990 RMK AO2 CIG 008V010 CIG 007 RWY27 SLP127 $
  • 190511Z AUTO 24003KT 8000 BR OVC008 14/14 A2990 RMK AO2 CIG 004V008 CIG 005 RWY27 SLP127 $
  • 190506Z AUTO 00000KT 8000 BR OVC006 14/14 A2990 RMK AO2 CIG 004V006 CIG 004 RWY27 SLP127 $
  • 190456Z AUTO 25003KT 6000 BR OVC004 14/14 A2990 RMK AO2 VIS 4400 RWY27 SLP127 T01370135 $
  • 190411Z AUTO 23003KT 9999 OVC004 14/13 A2989 RMK AO2 SLP123 $

TAF AMD TAF EGVA
Valid from the 18 at 11:00 until the 19 at 13:00 UTC


181145Z 1811/1913 VRB06KT 9999 FEW020 QNH2991INS
BECMG 1811/1812 17010G15KT 9999 SCT030 QNH2987INS
TEMPO 1812/1817 8000 -RA BKN030
BECMG 1817/1818 VRB06KT 9999 BKN030 OVC045 QNH2989INS
BECMG 1818/1819 VRB06KT 9999 BKN030 OVC045 QNH2987INS
BECMG 1903/1904 VRB06KT 5000 BR FEW014 FEW021 BKN029 QNH2987INS
BECMG 1904/1905 VRB06KT 1800 BR OVC015 QNH2987INS
TEMPO 1905/1908 0800 FG OVC000
BECMG 1911/1912 29009KT 9999 NSW BKN015 OVC025 QNH2995INS TX21/1813Z TN13/1905Z LAST NO AMDS AFT 1812 NEXT 2006



MET'MAP, your aeronautical weather chart ! - Copyright ORBIFLY December 2007 - Disclaimer

ORBIFLY MET'MAP TEAM :

Programming & Development : Alexandra Zaïnal
Concept & original design : Baudouin d'Aumeries
Assistance for programming : Marc-Olivier Méhu
Technical & hardware support : Manuel Goepfert

Contact : metmap@orbifly.com




SOURCES & CREDITS :

   NOAA